createdAt,value
2018-04-08T00:00:04.884Z,88.31
2018-04-08T00:01:05.129Z,88.22
2018-04-08T00:02:05.130Z,88.7
2018-04-08T00:03:04.860Z,88.7
2018-04-08T00:04:04.855Z,88.79
2018-04-08T00:05:05.097Z,88.89
2018-04-08T00:06:04.836Z,88.7
2018-04-08T00:07:05.083Z,88.7
2018-04-08T00:08:04.825Z,88.98
2018-04-08T00:09:05.068Z,89.07
2018-04-08T00:10:04.808Z,88.98
2018-04-08T00:11:04.797Z,88.7
2018-04-08T00:12:05.041Z,88.64
2018-04-08T00:13:05.037Z,88.79
2018-04-08T00:14:05.026Z,89.46
2018-04-08T00:15:04.766Z,89.5
2018-04-08T00:16:04.756Z,89.69
2018-04-08T00:17:05.004Z,88.84
2018-04-08T00:18:04.741Z,89.22
2018-04-08T00:19:04.734Z,89.69
2018-04-08T00:20:04.725Z,89.6
2018-04-08T00:21:04.717Z,89.4
2018-04-08T00:22:04.967Z,89.79
2018-04-08T00:23:04.953Z,89.12
2018-04-08T00:24:04.950Z,89.69
2018-04-08T00:25:04.686Z,89.69
2018-04-08T00:26:04.931Z,89.5
2018-04-08T00:27:04.669Z,89.6
2018-04-08T00:28:04.662Z,89.5
2018-04-08T00:29:04.654Z,89.31
2018-04-08T00:30:04.903Z,88.74
2018-04-08T00:31:04.638Z,88.84
2018-04-08T00:32:04.884Z,88.93
2018-04-08T00:33:04.875Z,89.03
2018-04-08T00:34:04.869Z,89.03
2018-04-08T00:35:04.863Z,89.22
2018-04-08T00:36:04.851Z,89.03
2018-04-08T00:37:04.846Z,88.93
2018-04-08T00:38:04.839Z,89.22
2018-04-08T00:39:04.839Z,89.12
2018-04-08T00:40:04.828Z,89.12
2018-04-08T00:41:04.560Z,88.84
2018-04-08T00:42:04.553Z,88.74
2018-04-08T00:43:04.544Z,88.93
2018-04-08T00:44:04.537Z,88.74
2018-04-08T00:45:04.528Z,89.22
2018-04-08T00:46:04.525Z,88.93
2018-04-08T00:47:04.766Z,88.93
2018-04-08T00:48:04.758Z,88.74
2018-04-08T00:49:04.754Z,88.93
2018-04-08T00:50:04.745Z,89.12
2018-04-08T00:51:04.483Z,89.5
2018-04-08T00:52:04.736Z,89.5
2018-04-08T00:53:04.721Z,89.69
2018-04-08T00:54:04.462Z,89.79
2018-04-08T00:55:04.705Z,89.89
2018-04-08T00:56:04.444Z,89.5
2018-04-08T00:57:04.435Z,89.69
2018-04-08T00:58:04.429Z,89.69
2018-04-08T00:59:04.421Z,89.79
2018-04-08T01:00:04.673Z,89.6
2018-04-08T01:01:04.658Z,89.79
2018-04-08T01:02:04.396Z,89.69
2018-04-08T01:03:04.390Z,89.79
2018-04-08T01:04:04.634Z,89.69
2018-04-08T01:05:04.626Z,89.4
2018-04-08T01:06:04.365Z,89.22
2018-04-08T01:07:04.612Z,89.6
2018-04-08T01:08:04.618Z,89.79
2018-04-08T01:09:04.347Z,89.84
2018-04-08T01:10:04.335Z,89.6
2018-04-08T01:11:04.325Z,89.89
2018-04-08T01:12:04.318Z,89.75
2018-04-08T01:13:04.360Z,89.98
2018-04-08T01:14:04.557Z,90.03
2018-04-08T01:15:04.551Z,89.84
2018-04-08T01:16:04.543Z,89.84
2018-04-08T01:17:04.533Z,89.84
2018-04-08T01:18:04.276Z,89.17
2018-04-08T01:19:04.517Z,89.4
2018-04-08T01:20:04.256Z,89.6
2018-04-08T01:21:04.501Z,89.6
2018-04-08T01:22:04.494Z,89.5
2018-04-08T01:23:04.486Z,88.93
2018-04-08T01:24:04.477Z,89.22
2018-04-08T01:25:04.469Z,89.22
2018-04-08T01:26:04.461Z,88.84
2018-04-08T01:27:04.200Z,88.55
2018-04-08T01:28:04.447Z,88.93
2018-04-08T01:29:04.183Z,88.36
2018-04-08T01:30:04.429Z,87.98
2018-04-08T01:31:04.168Z,87.98
2018-04-08T01:32:04.161Z,88.45
2018-04-08T01:33:04.153Z,87.98
2018-04-08T01:34:04.144Z,88.07
2018-04-08T01:35:04.136Z,88.36
2018-04-08T01:36:04.128Z,88.26
2018-04-08T01:37:04.374Z,88.17
2018-04-08T01:38:04.117Z,88.07
2018-04-08T01:39:04.105Z,88.36
2018-04-08T01:40:04.097Z,88.36
2018-04-08T01:41:04.096Z,88.36
2018-04-08T01:42:04.334Z,88.36
2018-04-08T01:43:04.074Z,88.74
2018-04-08T01:44:04.071Z,88.07
2018-04-08T01:45:04.058Z,88.07
2018-04-08T01:46:04.049Z,88.07
2018-04-08T01:47:04.046Z,87.79
2018-04-08T01:48:04.034Z,87.79
2018-04-08T01:49:04.027Z,87.5
2018-04-08T01:50:04.019Z,87.12
2018-04-08T01:51:04.264Z,87.31
2018-04-08T01:52:04.003Z,86.74
2018-04-08T01:53:03.995Z,87.02
2018-04-08T01:54:03.991Z,86.74
2018-04-08T01:55:04.232Z,86.83
2018-04-08T01:56:04.224Z,87.02
2018-04-08T01:57:04.217Z,86.07
2018-04-08T01:58:03.956Z,86.07
2018-04-08T01:59:03.951Z,86.36
2018-04-08T02:00:04.196Z,86.16
2018-04-08T02:01:03.932Z,86.16
2018-04-08T02:02:03.925Z,87.02
2018-04-08T02:03:04.169Z,86.83
2018-04-08T02:04:03.909Z,87.12
2018-04-08T02:05:03.902Z,87.31
2018-04-08T02:06:03.892Z,87.79
2018-04-08T02:07:04.138Z,87.69
2018-04-08T02:08:03.877Z,87.98
2018-04-08T02:09:04.129Z,88.07
2018-04-08T02:10:04.116Z,88.07
2018-04-08T02:11:04.107Z,88.26
2018-04-08T02:12:04.099Z,88.93
2018-04-08T02:13:03.837Z,89.22
2018-04-08T02:14:04.084Z,88.93
2018-04-08T02:15:04.076Z,88.84
2018-04-08T02:16:03.814Z,89.36
2018-04-08T02:17:03.807Z,89.84
2018-04-08T02:18:03.798Z,89.94
2018-04-08T02:19:03.790Z,89.94
2018-04-08T02:20:03.781Z,89.55
2018-04-08T02:21:03.791Z,89.94
2018-04-08T02:22:04.018Z,90.41
2018-04-08T02:23:04.011Z,90.5
2018-04-08T02:24:04.007Z,90.7
2018-04-08T02:25:03.742Z,90.6
2018-04-08T02:26:03.989Z,90.7
2018-04-08T02:27:03.985Z,90.7
2018-04-08T02:28:03.971Z,90.6
2018-04-08T02:29:03.710Z,90.5
2018-04-08T02:30:03.702Z,90.12
2018-04-08T02:31:03.693Z,90.41
2018-04-08T02:32:03.687Z,90.12
2018-04-08T02:33:03.934Z,90.12
2018-04-08T02:34:03.674Z,90.03
2018-04-08T02:35:03.917Z,90.22
2018-04-08T02:36:03.916Z,90.31
2018-04-08T02:37:03.930Z,90.12
2018-04-08T02:38:03.891Z,90.22
2018-04-08T02:39:03.903Z,90.6
2018-04-08T02:40:03.888Z,90.22
2018-04-08T02:41:03.868Z,90.12
2018-04-08T02:42:03.605Z,89.84
2018-04-08T02:43:03.850Z,90.12
2018-04-08T02:44:03.594Z,90.41
2018-04-08T02:45:03.857Z,89.84
2018-04-08T02:46:03.572Z,90.03
2018-04-08T02:47:03.826Z,89.94
2018-04-08T02:48:03.559Z,89.98
2018-04-08T02:49:03.806Z,90.08
2018-04-08T02:50:03.795Z,89.84
2018-04-08T02:51:03.797Z,89.89
2018-04-08T02:52:03.783Z,89.89
2018-04-08T02:53:03.516Z,90.41
2018-04-08T02:54:03.511Z,89.7
2018-04-08T02:55:03.759Z,89.89
2018-04-08T02:56:03.746Z,89.89
2018-04-08T02:57:03.739Z,90.27
2018-04-08T02:58:03.726Z,89.61
2018-04-08T02:59:03.722Z,89.79
2018-04-08T03:00:03.461Z,90.08
2018-04-08T03:01:03.454Z,89.98
2018-04-08T03:02:03.713Z,90.27
2018-04-08T03:03:03.685Z,90.46
2018-04-08T03:04:03.429Z,90.56
2018-04-08T03:05:03.435Z,90.65
2018-04-08T03:06:03.406Z,90.46
2018-04-08T03:07:03.399Z,89.98
2018-04-08T03:08:03.643Z,90.46
2018-04-08T03:09:03.384Z,90.46
2018-04-08T03:10:03.634Z,90.75
2018-04-08T03:11:03.364Z,90.56
2018-04-08T03:12:03.620Z,90.75
2018-04-08T03:13:03.600Z,91.22
2018-04-08T03:14:03.340Z,90.84
2018-04-08T03:15:03.331Z,90.84
2018-04-08T03:16:03.576Z,91.13
2018-04-08T03:17:03.568Z,91.22
2018-04-08T03:18:03.560Z,91.03
2018-04-08T03:19:03.297Z,91.41
2018-04-08T03:20:03.289Z,91.79
2018-04-08T03:21:03.282Z,91.51
2018-04-08T03:22:03.526Z,91.99
2018-04-08T03:23:03.263Z,91.7
2018-04-08T03:24:03.257Z,91.79
2018-04-08T03:25:03.499Z,91.99
2018-04-08T03:26:03.237Z,92.08
2018-04-08T03:27:03.229Z,91.99
2018-04-08T03:28:03.474Z,92.36
2018-04-08T03:29:03.213Z,92.08
2018-04-08T03:30:03.473Z,92.36
2018-04-08T03:31:03.452Z,92.65
2018-04-08T03:32:03.440Z,92.22
2018-04-08T03:33:03.433Z,92.36
2018-04-08T03:34:03.421Z,92.13
2018-04-08T03:35:03.419Z,93.03
2018-04-08T03:36:03.406Z,92.89
2018-04-08T03:37:03.404Z,93.27
2018-04-08T03:38:03.136Z,93.37
2018-04-08T03:39:03.380Z,93.46
2018-04-08T03:40:03.372Z,93.55
2018-04-08T03:41:03.368Z,93.55
2018-04-08T03:42:03.354Z,93.74
2018-04-08T03:43:03.349Z,94.42
2018-04-08T03:44:03.336Z,94.32
2018-04-08T03:45:03.328Z,94.32
2018-04-08T03:46:03.323Z,94.22
2018-04-08T03:47:03.310Z,94.13
2018-04-08T03:48:03.050Z,93.94
2018-04-08T03:49:03.298Z,94.03
2018-04-08T03:50:03.288Z,94.13
2018-04-08T03:51:03.278Z,93.84
2018-04-08T03:52:03.267Z,94.13
2018-04-08T03:53:03.259Z,94.22
2018-04-08T03:54:03.249Z,93.74
2018-04-08T03:55:03.240Z,94.32
2018-04-08T03:56:03.232Z,94.22
2018-04-08T03:57:03.223Z,94.51
2018-04-08T03:58:03.222Z,94.13
2018-04-08T03:59:03.204Z,94.03
2018-04-08T04:00:02.945Z,94.32
2018-04-08T04:01:03.188Z,94.79
2018-04-08T04:02:03.179Z,94.6
2018-04-08T04:03:03.169Z,94.89
2018-04-08T04:04:03.160Z,94.03
2018-04-08T04:05:03.156Z,94.42
2018-04-08T04:06:02.890Z,94.22
2018-04-08T04:07:03.136Z,94.03
2018-04-08T04:08:03.131Z,94.13
2018-04-08T04:09:03.124Z,93.94
2018-04-08T04:10:02.859Z,93.74
2018-04-08T04:11:03.103Z,93.84
2018-04-08T04:12:03.092Z,93.94
2018-04-08T04:13:03.082Z,94.03
2018-04-08T04:14:03.073Z,94.13
2018-04-08T04:15:03.064Z,94.03
2018-04-08T04:16:03.056Z,93.94
2018-04-08T04:17:03.047Z,93.94
2018-04-08T04:18:03.042Z,93.94
2018-04-08T04:19:03.028Z,94.13
2018-04-08T04:20:02.770Z,93.94
2018-04-08T04:21:03.011Z,94.13
2018-04-08T04:22:03.002Z,94.03
2018-04-08T04:23:02.741Z,94.03
2018-04-08T04:24:02.983Z,94.42
2018-04-08T04:25:02.722Z,94.03
2018-04-08T04:26:02.966Z,94.79
2018-04-08T04:27:02.956Z,94.56
2018-04-08T04:28:02.948Z,94.79
2018-04-08T04:29:02.938Z,94.65
2018-04-08T04:30:02.678Z,94.93
2018-04-08T04:31:02.921Z,94.51
2018-04-08T04:32:02.911Z,94.74
2018-04-08T04:33:02.650Z,94.56
2018-04-08T04:34:02.899Z,94.56
2018-04-08T04:35:02.883Z,94.6
2018-04-08T04:36:02.874Z,94.37
2018-04-08T04:37:02.867Z,94.74
2018-04-08T04:38:02.860Z,94.89
2018-04-08T04:39:02.598Z,94.7
2018-04-08T04:40:02.841Z,94.7
2018-04-08T04:41:02.831Z,94.42
2018-04-08T04:42:02.823Z,94.74
2018-04-08T04:43:02.815Z,94.79
2018-04-08T04:44:02.845Z,94.74
2018-04-08T04:45:02.802Z,94.98
2018-04-08T04:46:02.533Z,94.42
2018-04-08T04:47:02.779Z,94.89
2018-04-08T04:48:02.767Z,94.6
2018-04-08T04:49:02.764Z,94.13
2018-04-08T04:50:02.501Z,94.03
2018-04-08T04:51:02.744Z,93.84
2018-04-08T04:52:02.732Z,94.42
2018-04-08T04:53:02.727Z,94.22
2018-04-08T04:54:02.714Z,93.65
2018-04-08T04:55:02.706Z,93.84
2018-04-08T04:56:02.699Z,93.55
2018-04-08T04:57:02.688Z,93.37
2018-04-08T04:58:02.680Z,93.51
2018-04-08T04:59:02.679Z,92.55
2018-04-08T05:00:02.673Z,91.89
2018-04-08T05:01:02.659Z,92.08
2018-04-08T05:02:02.648Z,91.99
2018-04-08T05:03:02.645Z,91.7
2018-04-08T05:04:02.631Z,91.13
2018-04-08T05:05:02.623Z,91.08
2018-04-08T05:06:02.613Z,90.79
2018-04-08T05:07:02.606Z,90.12
2018-04-08T05:08:02.600Z,90.31
2018-04-08T05:09:02.596Z,89.94
2018-04-08T05:10:02.584Z,88.89
2018-04-08T05:11:02.576Z,88.84
2018-04-08T05:12:02.568Z,88.64
2018-04-08T05:13:02.562Z,88.45
2018-04-08T05:14:02.554Z,87.79
2018-04-08T05:15:02.550Z,87.5
2018-04-08T05:16:02.287Z,86.88
2018-04-08T05:17:02.533Z,86.69
2018-04-08T05:18:02.529Z,85.25
2018-04-08T05:19:02.525Z,85.45
2018-04-08T05:20:02.513Z,84.97
2018-04-08T05:21:02.508Z,84.44
2018-04-08T05:22:02.508Z,84.44
2018-04-08T05:23:02.495Z,83.67
2018-04-08T05:24:02.493Z,82.82
2018-04-08T05:25:02.485Z,82.86
2018-04-08T05:26:02.478Z,82
2018-04-08T05:27:02.472Z,81.71
2018-04-08T05:28:02.213Z,81.14
2018-04-08T05:29:02.464Z,80.9
2018-04-08T05:30:02.468Z,80.32
2018-04-08T05:31:02.450Z,79.75
2018-04-08T05:32:02.450Z,79.12
2018-04-08T05:33:02.441Z,77.87
2018-04-08T05:34:02.435Z,77.69
2018-04-08T05:35:02.483Z,77.92
2018-04-08T05:36:02.427Z,77.82
2018-04-08T05:37:02.169Z,77.25
2018-04-08T05:38:02.416Z,76.96
2018-04-08T05:39:02.415Z,76.23
2018-04-08T05:40:02.412Z,75.27
2018-04-08T05:41:02.223Z,75.09
2018-04-08T05:42:02.410Z,74.7
2018-04-08T05:43:02.402Z,73.59
2018-04-08T05:44:02.400Z,73.5
2018-04-08T05:45:02.391Z,71.77
2018-04-08T05:46:02.390Z,71.71
2018-04-08T05:47:02.131Z,70.95
2018-04-08T05:48:02.382Z,70.47
2018-04-08T05:49:02.379Z,70.18
2018-04-08T05:50:02.378Z,69.83
2018-04-08T05:51:02.380Z,69.26
2018-04-08T05:52:02.372Z,68.49
2018-04-08T05:53:02.370Z,68.4
2018-04-08T05:54:02.378Z,67.34
2018-04-08T05:55:02.365Z,67.18
2018-04-08T05:56:02.360Z,66.61
2018-04-08T05:57:02.360Z,66.06
2018-04-08T05:58:02.431Z,65.59
2018-04-08T05:59:02.103Z,65.2
2018-04-08T06:00:02.356Z,64.43
2018-04-08T06:01:02.357Z,64.56
2018-04-08T06:02:02.354Z,62.84
2018-04-08T06:03:02.352Z,63.03
2018-04-08T06:04:02.350Z,61.91
2018-04-08T06:05:02.353Z,61.14
2018-04-08T06:06:02.096Z,60.57
2018-04-08T06:07:02.094Z,60.88
2018-04-08T06:08:02.348Z,59.06
2018-04-08T06:09:02.347Z,59.06
2018-04-08T06:10:02.348Z,58
2018-04-08T06:11:02.350Z,58.77
2018-04-08T06:12:02.346Z,57.75
2018-04-08T06:13:02.100Z,58.32
2018-04-08T06:14:02.358Z,57.45
2018-04-08T06:15:02.355Z,56.14
2018-04-08T06:16:02.350Z,56.04
2018-04-08T06:17:02.352Z,55.85
2018-04-08T06:18:02.350Z,56.14
2018-04-08T06:19:02.352Z,55.08
2018-04-08T06:20:02.355Z,54.53
2018-04-08T06:21:02.356Z,54.14
2018-04-08T06:22:02.370Z,53.86
2018-04-08T06:23:02.362Z,53.57
2018-04-08T06:24:02.365Z,53.66
2018-04-08T06:25:02.365Z,53.86
2018-04-08T06:26:02.370Z,53.57
2018-04-08T06:27:02.371Z,53.19
2018-04-08T06:28:02.370Z,53.28
2018-04-08T06:29:02.372Z,53.76
2018-04-08T06:30:02.124Z,52.89
2018-04-08T06:31:02.388Z,52.7
2018-04-08T06:32:02.379Z,52.06
2018-04-08T06:33:02.387Z,52.15
2018-04-08T06:34:02.397Z,51.96
2018-04-08T06:35:02.135Z,51.76
2018-04-08T06:36:02.390Z,51.29
2018-04-08T06:37:02.141Z,50.73
2018-04-08T06:38:02.398Z,50.93
2018-04-08T06:39:02.404Z,50.73
2018-04-08T06:40:02.405Z,50.25
2018-04-08T06:41:02.162Z,49.38
2018-04-08T06:42:02.411Z,49.68
2018-04-08T06:43:02.414Z,49.68
2018-04-08T06:44:02.419Z,49.41
2018-04-08T06:45:02.430Z,49.41
2018-04-08T06:46:02.174Z,48.83
2018-04-08T06:47:02.432Z,48.25
2018-04-08T06:48:02.435Z,48.25
2018-04-08T06:49:02.191Z,48.08
2018-04-08T06:50:02.447Z,48.16
2018-04-08T06:51:02.455Z,47.58
2018-04-08T06:52:02.463Z,47.87
2018-04-08T06:53:02.468Z,47.58
2018-04-08T06:54:02.462Z,47.77
2018-04-08T06:55:02.214Z,48.25
2018-04-08T06:56:02.472Z,47.58
2018-04-08T06:57:02.477Z,47.58
2018-04-08T06:58:02.483Z,47.87
2018-04-08T06:59:02.487Z,47.58
2018-04-08T07:00:02.494Z,47.97
2018-04-08T07:01:02.499Z,47.89
2018-04-08T07:02:02.249Z,47.31
2018-04-08T07:03:02.509Z,47.03
2018-04-08T07:04:02.515Z,46.93
2018-04-08T07:05:02.523Z,46.55
2018-04-08T07:06:02.523Z,46.73
2018-04-08T07:07:02.531Z,46.64
2018-04-08T07:08:02.535Z,46.45
2018-04-08T07:09:02.288Z,46.25
2018-04-08T07:10:02.295Z,46.25
2018-04-08T07:11:02.561Z,46.06
2018-04-08T07:12:02.666Z,46.25
2018-04-08T07:13:02.568Z,46.45
2018-04-08T07:14:02.569Z,46.06
2018-04-08T07:15:02.578Z,45.51
2018-04-08T07:16:02.329Z,45.6
2018-04-08T07:17:02.587Z,45.51
2018-04-08T07:18:02.601Z,45.31
2018-04-08T07:19:02.600Z,44.73
2018-04-08T07:20:02.607Z,44.73
2018-04-08T07:21:02.360Z,45.03
2018-04-08T07:22:02.621Z,45.03
2018-04-08T07:23:02.628Z,45.51
2018-04-08T07:24:02.634Z,45.31
2018-04-08T07:25:02.388Z,45.21
2018-04-08T07:26:02.652Z,45.6
2018-04-08T07:27:02.655Z,45.6
2018-04-08T07:28:02.407Z,44.93
2018-04-08T07:29:02.671Z,44.73
2018-04-08T07:30:02.424Z,44.54
2018-04-08T07:31:02.684Z,44.73
2018-04-08T07:32:02.709Z,44.83
2018-04-08T07:33:02.702Z,45.03
2018-04-08T07:34:02.705Z,44.64
2018-04-08T07:35:02.713Z,44.85
2018-04-08T07:36:02.483Z,44.46
2018-04-08T07:37:02.726Z,44.46
2018-04-08T07:38:02.822Z,43.98
2018-04-08T07:39:02.743Z,43.6
2018-04-08T07:40:02.791Z,43.79
2018-04-08T07:41:02.764Z,44.08
2018-04-08T07:42:02.769Z,44.25
2018-04-08T07:43:02.780Z,44.64
2018-04-08T07:44:02.792Z,44.54
2018-04-08T07:45:02.812Z,44.83
2018-04-08T07:46:02.802Z,45.03
2018-04-08T07:47:02.816Z,45.41
2018-04-08T07:48:02.820Z,44.85
2018-04-08T07:49:02.589Z,44.18
2018-04-08T07:50:02.905Z,43.62
2018-04-08T07:51:02.849Z,43.72
2018-04-08T07:52:02.856Z,43.14
2018-04-08T07:53:02.866Z,42.66
2018-04-08T07:54:02.874Z,42.75
2018-04-08T07:55:02.889Z,42.75
2018-04-08T07:56:02.890Z,42.66
2018-04-08T07:57:02.915Z,42.75
2018-04-08T07:58:02.922Z,42.75
2018-04-08T07:59:02.922Z,43.21
2018-04-08T08:00:02.680Z,43.12
2018-04-08T08:01:02.960Z,43.6
2018-04-08T08:02:02.952Z,44.18
2018-04-08T08:03:02.974Z,44.08
2018-04-08T08:04:02.971Z,43.79
2018-04-08T08:05:02.970Z,43.6
2018-04-08T08:06:02.984Z,43.89
2018-04-08T08:07:02.733Z,44.06
2018-04-08T08:08:03.003Z,44.73
2018-04-08T08:09:03.006Z,45.03
2018-04-08T08:10:02.758Z,45.51
2018-04-08T08:11:03.018Z,45.68
2018-04-08T08:12:02.771Z,45.68
2018-04-08T08:13:03.034Z,45.77
2018-04-08T08:14:03.079Z,46.25
2018-04-08T08:15:03.049Z,46.93
2018-04-08T08:16:03.059Z,46.73
2018-04-08T08:17:03.063Z,47.19
2018-04-08T08:18:03.070Z,47.97
2018-04-08T08:19:03.075Z,47.39
2018-04-08T08:20:02.829Z,47.29
2018-04-08T08:21:03.089Z,47.67
2018-04-08T08:22:03.098Z,47.97
2018-04-08T08:23:02.877Z,47.87
2018-04-08T08:24:03.109Z,48.43
2018-04-08T08:25:03.114Z,48.71
2018-04-08T08:26:02.866Z,49.27
2018-04-08T08:27:03.125Z,49.94
2018-04-08T08:28:03.150Z,50.59
2018-04-08T08:29:03.154Z,51.17
2018-04-08T08:30:03.138Z,50.97
2018-04-08T08:31:03.149Z,51.23
2018-04-08T08:32:03.145Z,51.43
2018-04-08T08:33:03.148Z,51.98
2018-04-08T08:34:03.155Z,52.46
2018-04-08T08:35:02.900Z,52.84
2018-04-08T08:36:03.160Z,53.49
2018-04-08T08:37:02.902Z,54.16
2018-04-08T08:38:02.904Z,54.35
2018-04-08T08:39:03.159Z,54.23
2018-04-08T08:40:03.158Z,54.71
2018-04-08T08:41:03.159Z,55.77
2018-04-08T08:42:03.167Z,56.44
2018-04-08T08:43:02.907Z,56.15
2018-04-08T08:44:03.155Z,56.63
2018-04-08T08:45:02.903Z,56.24
2018-04-08T08:46:03.173Z,56.31
2018-04-08T08:47:03.154Z,56.41
2018-04-08T08:48:03.164Z,56.89
2018-04-08T08:49:02.898Z,57.28
2018-04-08T08:50:02.901Z,57.85
2018-04-08T08:51:03.157Z,57.65
2018-04-08T08:52:03.156Z,57.75
2018-04-08T08:53:03.149Z,57.56
2018-04-08T08:54:03.153Z,58.14
2018-04-08T08:55:03.257Z,58.14
2018-04-08T08:56:03.146Z,58.14
2018-04-08T08:57:02.885Z,58.14
2018-04-08T08:58:03.136Z,58.04
2018-04-08T08:59:03.134Z,57.56
2018-04-08T09:00:02.887Z,57.95
2018-04-08T09:01:03.132Z,57.85
2018-04-08T09:02:03.129Z,57.95
2018-04-08T09:03:03.135Z,58.04
2018-04-08T09:04:03.122Z,58.42
2018-04-08T09:05:03.127Z,58.91
2018-04-08T09:06:03.121Z,57.95
2018-04-08T09:07:03.120Z,58.23
2018-04-08T09:08:03.120Z,58.04
2018-04-08T09:09:02.859Z,58.33
2018-04-08T09:10:02.853Z,58.33
2018-04-08T09:11:03.105Z,58.23
2018-04-08T09:12:03.101Z,58.14
2018-04-08T09:13:03.100Z,57.95
2018-04-08T09:14:03.111Z,58.71
2018-04-08T09:15:03.094Z,58.71
2018-04-08T09:16:03.090Z,59.29
2018-04-08T09:17:03.102Z,59
2018-04-08T09:18:03.089Z,59.09
2018-04-08T09:19:03.084Z,58.23
2018-04-08T09:20:02.830Z,58.62
2018-04-08T09:21:02.832Z,58.14
2018-04-08T09:22:02.821Z,57.56
2018-04-08T09:23:03.073Z,58.14
2018-04-08T09:24:03.074Z,59.09
2018-04-08T09:25:03.067Z,58.71
2018-04-08T09:26:03.074Z,58.33
2018-04-08T09:27:03.060Z,58.23
2018-04-08T09:28:03.062Z,58.33
2018-04-08T09:29:03.104Z,57.95
2018-04-08T09:30:03.055Z,58.33
2018-04-08T09:31:03.059Z,58.14
2018-04-08T09:32:03.048Z,58.71
2018-04-08T09:33:03.043Z,58.62
2018-04-08T09:34:02.788Z,58.62
2018-04-08T09:35:03.045Z,58.33
2018-04-08T09:36:03.045Z,58.04
2018-04-08T09:37:03.032Z,57.85
2018-04-08T09:38:03.036Z,57.37
2018-04-08T09:39:02.779Z,57.85
2018-04-08T09:40:02.771Z,56.89
2018-04-08T09:41:02.768Z,57.28
2018-04-08T09:42:02.768Z,58.04
2018-04-08T09:43:03.015Z,58.23
2018-04-08T09:44:03.013Z,57.59
2018-04-08T09:45:03.024Z,56.73
2018-04-08T09:46:03.010Z,57.78
2018-04-08T09:47:03.005Z,57.78
2018-04-08T09:48:03.002Z,57.88
2018-04-08T09:49:03.002Z,57.4
2018-04-08T09:50:02.997Z,57.11
2018-04-08T09:51:02.994Z,57.11
2018-04-08T09:52:02.990Z,57.88
2018-04-08T09:53:02.989Z,57.3
2018-04-08T09:54:02.990Z,57.5
2018-04-08T09:55:03.115Z,57.01
2018-04-08T09:56:02.984Z,57.21
2018-04-08T09:57:02.980Z,56.53
2018-04-08T09:58:02.987Z,56.56
2018-04-08T09:59:02.976Z,56.37
2018-04-08T10:00:02.718Z,56.37
2018-04-08T10:01:02.984Z,56.27
2018-04-08T10:02:02.966Z,56.46
2018-04-08T10:03:02.963Z,56.08
2018-04-08T10:04:02.960Z,55.79
2018-04-08T10:05:02.960Z,55.89
2018-04-08T10:06:02.955Z,55.41
2018-04-08T10:07:02.709Z,56.08
2018-04-08T10:08:02.948Z,56.56
2018-04-08T10:09:02.947Z,56.46
2018-04-08T10:10:02.944Z,56.46
2018-04-08T10:11:02.698Z,55.89
2018-04-08T10:12:03.056Z,55.89
2018-04-08T10:13:02.938Z,56.11
2018-04-08T10:14:02.938Z,55.44
2018-04-08T10:15:02.680Z,54.77
2018-04-08T10:16:02.677Z,55.73
2018-04-08T10:17:02.929Z,55.34
2018-04-08T10:18:02.930Z,55.63
2018-04-08T10:19:02.920Z,55.24
2018-04-08T10:20:02.919Z,55.15
2018-04-08T10:21:02.920Z,54.19
2018-04-08T10:22:02.916Z,53.8
2018-04-08T10:23:02.664Z,54.57
2018-04-08T10:24:02.671Z,54.67
2018-04-08T10:25:02.917Z,54.19
2018-04-08T10:26:02.652Z,54.09
2018-04-08T10:27:02.920Z,53.8
2018-04-08T10:28:02.909Z,54.28
2018-04-08T10:29:02.964Z,54.38
2018-04-08T10:30:02.643Z,54.38
2018-04-08T10:31:02.898Z,53.9
2018-04-08T10:32:02.899Z,54.28
2018-04-08T10:33:02.650Z,54.28
2018-04-08T10:34:02.889Z,53.23
2018-04-08T10:35:02.885Z,52.97
2018-04-08T10:36:02.886Z,52.94
2018-04-08T10:37:02.888Z,53.45
2018-04-08T10:38:02.887Z,53.16
2018-04-08T10:39:02.887Z,53.16
2018-04-08T10:40:02.875Z,53.13
2018-04-08T10:41:02.883Z,52.94
2018-04-08T10:42:02.618Z,52.84
2018-04-08T10:43:02.869Z,53.54
2018-04-08T10:44:02.868Z,53.61
2018-04-08T10:45:02.865Z,53.61
2018-04-08T10:46:02.860Z,53.32
2018-04-08T10:47:02.859Z,52.65
2018-04-08T10:48:02.857Z,52.2
2018-04-08T10:49:02.606Z,51.98
2018-04-08T10:50:02.884Z,51.59
2018-04-08T10:51:02.597Z,52.58
2018-04-08T10:52:02.596Z,51.79
2018-04-08T10:53:02.601Z,51.72
2018-04-08T10:54:02.842Z,51.69
2018-04-08T10:55:02.588Z,51.79
2018-04-08T10:56:02.838Z,51.98
2018-04-08T10:57:02.584Z,51.98
2018-04-08T10:58:02.581Z,51.98
2018-04-08T10:59:02.578Z,52.26
2018-04-08T11:00:02.828Z,52.39
2018-04-08T11:01:02.603Z,51.98
2018-04-08T11:02:02.824Z,52.65
2018-04-08T11:03:02.822Z,52.29
2018-04-08T11:04:02.822Z,52.29
2018-04-08T11:05:02.894Z,52.1
2018-04-08T11:06:02.562Z,51.62
2018-04-08T11:07:02.813Z,51.72
2018-04-08T11:08:02.826Z,51.23
2018-04-08T11:09:02.811Z,50.95
2018-04-08T11:10:02.819Z,51.43
2018-04-08T11:11:02.804Z,52.2
2018-04-08T11:12:02.805Z,52.1
2018-04-08T11:13:02.801Z,51.72
2018-04-08T11:14:02.801Z,51.23
2018-04-08T11:15:02.796Z,51.04
2018-04-08T11:16:02.539Z,51.33
2018-04-08T11:17:02.791Z,51.33
2018-04-08T11:18:02.535Z,51.33
2018-04-08T11:19:02.785Z,51.04
2018-04-08T11:20:02.788Z,50.76
2018-04-08T11:21:02.530Z,50.76
2018-04-08T11:22:02.780Z,50.66
2018-04-08T11:23:02.528Z,50.37
2018-04-08T11:24:02.776Z,50.01
2018-04-08T11:25:02.786Z,50.66
2018-04-08T11:26:02.523Z,50.66
2018-04-08T11:27:02.769Z,50.08
2018-04-08T11:28:02.769Z,50.1
2018-04-08T11:29:02.764Z,50.3
2018-04-08T11:30:02.763Z,50.59
2018-04-08T11:31:02.761Z,50.4
2018-04-08T11:32:02.761Z,50.2
2018-04-08T11:33:02.754Z,50.68
2018-04-08T11:34:02.760Z,50.87
2018-04-08T11:35:02.752Z,50.68
2018-04-08T11:36:02.766Z,50.78
2018-04-08T11:37:02.754Z,50.78
2018-04-08T11:38:02.762Z,50.68
2018-04-08T11:39:02.743Z,50.97
2018-04-08T11:40:02.740Z,51.74
2018-04-08T11:41:02.739Z,51.17
2018-04-08T11:42:02.745Z,50.3
2018-04-08T11:43:02.758Z,50.49
2018-04-08T11:44:02.731Z,50.49
2018-04-08T11:45:02.732Z,51.35
2018-04-08T11:46:02.475Z,50.87
2018-04-08T11:47:02.724Z,50.78
2018-04-08T11:48:02.479Z,50.49
2018-04-08T11:49:02.723Z,51.45
2018-04-08T11:50:02.723Z,51.17
2018-04-08T11:51:02.717Z,50.97
2018-04-08T11:52:02.715Z,51.35
2018-04-08T11:53:02.716Z,50.2
2018-04-08T11:54:02.458Z,50.49
2018-04-08T11:55:02.708Z,49.82
2018-04-08T11:56:02.711Z,50.01
2018-04-08T11:57:02.712Z,49.72
2018-04-08T11:58:02.726Z,49.84
2018-04-08T11:59:02.704Z,50.3
2018-04-08T12:00:02.704Z,50.59
2018-04-08T12:01:02.697Z,50.59
2018-04-08T12:02:02.840Z,50.68
2018-04-08T12:03:02.695Z,50.1
2018-04-08T12:04:02.693Z,50.49
2018-04-08T12:05:02.693Z,50.59
2018-04-08T12:06:02.686Z,50.51
2018-04-08T12:07:02.691Z,50.23
2018-04-08T12:08:02.689Z,50.23
2018-04-08T12:09:02.687Z,50.23
2018-04-08T12:10:02.685Z,50.42
2018-04-08T12:11:02.691Z,50.81
2018-04-08T12:12:02.681Z,50.4
2018-04-08T12:13:02.428Z,50.51
2018-04-08T12:14:02.686Z,50.81
2018-04-08T12:15:02.459Z,50.51
2018-04-08T12:16:02.669Z,49.74
2018-04-08T12:17:02.694Z,50.42
2018-04-08T12:18:02.674Z,49.46
2018-04-08T12:19:02.662Z,49.84
2018-04-08T12:20:02.670Z,49.74
2018-04-08T12:21:02.660Z,49.46
2018-04-08T12:22:02.410Z,49.27
2018-04-08T12:23:02.659Z,49.46
2018-04-08T12:24:02.664Z,49.46
2018-04-08T12:25:02.714Z,49.74
2018-04-08T12:26:02.652Z,49.17
2018-04-08T12:27:02.654Z,48.97
2018-04-08T12:28:02.646Z,48.88
2018-04-08T12:29:02.650Z,49.36
2018-04-08T12:30:02.643Z,49.17
2018-04-08T12:31:02.388Z,49.36
2018-04-08T12:32:02.643Z,49.46
2018-04-08T12:33:02.647Z,49.74
2018-04-08T12:34:02.634Z,49.27
2018-04-08T12:35:02.639Z,48.59
2018-04-08T12:36:02.631Z,49.17
2018-04-08T12:37:02.633Z,49.46
2018-04-08T12:38:02.628Z,48.69
2018-04-08T12:39:02.630Z,48.59
2018-04-08T12:40:02.632Z,49.36
2018-04-08T12:41:02.623Z,49.07
2018-04-08T12:42:02.626Z,49.27
2018-04-08T12:43:02.622Z,49.55
2018-04-08T12:44:02.618Z,49.36
2018-04-08T12:45:02.366Z,48.59
2018-04-08T12:46:02.619Z,48.49
2018-04-08T12:47:02.360Z,48.21
2018-04-08T12:48:02.626Z,47.82
2018-04-08T12:49:02.607Z,47.72
2018-04-08T12:50:02.613Z,47.72
2018-04-08T12:51:02.602Z,48.4
2018-04-08T12:52:02.627Z,47.82
2018-04-08T12:53:02.622Z,48.4
2018-04-08T12:54:02.349Z,47.82
2018-04-08T12:55:02.597Z,47.44